Time;durP1;ratioP1;P1;durP2;ratioP2;P2;SDS_P1;SDS_P2;PMS_P1;PMS_P2;Temp;Humidity;BMP_temperature;BMP_pressure;BME280_temperature;BME280_humidity;BME280_pressure;Samples;Min_cycle;Max_cycle;Signal;HPM_P1;HPM_P2
2021/01/26 00:02:54;;;;;;;8.40;5.63;;;-0.80;99.90;;;;;;8356862;28;20031;-73
2021/01/26 00:06:54;;;;;;;8.30;5.15;;;-0.80;99.90;;;;;;8358757;28;20036;-73
2021/01/26 00:10:56;;;;;;;9.35;5.65;;;-0.70;99.90;;;;;;8359026;28;20673;-74
2021/01/26 00:14:56;;;;;;;9.73;5.95;;;-0.80;99.90;;;;;;8392149;28;20028;-73
2021/01/26 00:18:57;;;;;;;9.32;5.93;;;-0.70;99.90;;;;;;8359505;28;20108;-73
2021/01/26 00:22:58;;;;;;;9.68;5.35;;;-0.80;99.90;;;;;;8358061;28;20029;-73
2021/01/26 00:26:59;;;;;;;6.20;3.78;;;-0.70;99.90;;;;;;8357604;28;20113;-73
2021/01/26 00:30:59;;;;;;;7.65;5.00;;;-0.70;99.90;;;;;;8360080;28;20106;-73
2021/01/26 00:35:00;;;;;;;8.52;4.93;;;-0.70;99.90;;;;;;8358445;28;20029;-74
2021/01/26 00:39:00;;;;;;;9.18;5.35;;;-0.60;99.90;;;;;;8359725;28;20025;-74
2021/01/26 00:43:01;;;;;;;8.25;5.03;;;-0.50;99.90;;;;;;8357342;28;20036;-75
2021/01/26 00:47:02;;;;;;;8.93;5.13;;;-0.60;99.90;;;;;;8358188;28;20040;-73
2021/01/26 00:51:03;;;;;;;7.78;4.25;;;-0.50;99.90;;;;;;8356936;28;20387;-73
2021/01/26 00:55:05;;;;;;;8.93;4.93;;;-0.40;99.90;;;;;;8356554;28;20044;-73
2021/01/26 00:59:06;;;;;;;8.20;5.40;;;-0.40;99.90;;;;;;8358170;28;20029;-74
2021/01/26 01:03:07;;;;;;;9.07;5.65;;;-0.30;99.90;;;;;;8356893;28;20053;-74
2021/01/26 01:07:08;;;;;;;10.32;5.50;;;-0.40;99.90;;;;;;8359781;28;20032;-73
2021/01/26 01:11:09;;;;;;;6.00;3.75;;;-0.40;99.90;;;;;;8364234;28;20120;-72
2021/01/26 01:15:10;;;;;;;6.45;4.38;;;-0.40;99.90;;;;;;8365198;28;20033;-71
2021/01/26 01:19:10;;;;;;;10.30;5.80;;;-0.50;99.90;;;;;;8363870;28;20064;-72
2021/01/26 01:23:11;;;;;;;9.00;5.57;;;-0.50;99.90;;;;;;8364918;28;20059;-72
2021/01/26 01:27:11;;;;;;;9.30;5.38;;;-0.50;99.90;;;;;;8363614;28;20032;-72
2021/01/26 01:31:12;;;;;;;8.02;4.50;;;-0.50;99.90;;;;;;8364757;28;20027;-72
2021/01/26 01:35:13;;;;;;;8.73;5.88;;;-0.60;99.90;;;;;;8364468;28;20664;-72
2021/01/26 01:39:14;;;;;;;8.98;5.68;;;-0.60;99.90;;;;;;8363100;28;20025;-72
2021/01/26 01:43:14;;;;;;;9.57;5.85;;;-0.70;99.90;;;;;;8362974;28;20499;-71
2021/01/26 01:47:25;;;;;;;8.77;5.22;;;-0.70;99.90;;;;;;8362800;28;20029;-72
2021/01/26 01:51:28;;;;;;;9.90;6.68;;;-0.80;99.90;;;;;;8364231;28;20032;-72
2021/01/26 01:55:31;;;;;;;12.07;6.53;;;-0.90;99.90;;;;;;8363749;28;20025;-72
2021/01/26 01:59:38;;;;;;;10.45;6.50;;;-1.20;99.90;;;;;;8363801;28;20388;-72
2021/01/26 02:03:45;;;;;;;11.27;6.32;;;-1.30;99.90;;;;;;8361878;28;20447;-72
2021/01/26 02:07:46;;;;;;;10.95;6.82;;;-1.40;99.90;;;;;;8363487;28;20083;-72
2021/01/26 02:11:47;;;;;;;13.00;7.28;;;-1.50;99.90;;;;;;8363613;28;20440;-72
2021/01/26 02:15:52;;;;;;;11.20;6.38;;;-1.70;99.90;;;;;;8361576;28;20054;-72
2021/01/26 02:20:26;;;;;;;12.40;6.75;;;-1.80;99.90;;;;;;8363303;28;20032;-72
2021/01/26 02:25:05;;;;;;;12.38;6.55;;;-1.80;99.90;;;;;;8361635;28;20119;-72
2021/01/26 02:29:11;;;;;;;11.93;6.13;;;-1.90;99.90;;;;;;8362981;28;20067;-72
2021/01/26 02:34:02;;;;;;;11.13;6.40;;;-2.00;99.90;;;;;;8361169;28;20024;-72
2021/01/26 02:38:30;;;;;;;11.35;6.35;;;-2.00;99.90;;;;;;8335708;28;20399;-72
2021/01/26 02:42:39;;;;;;;13.30;6.63;;;-1.90;99.90;;;;;;8362589;28;20021;-72
2021/01/26 02:46:50;;;;;;;13.20;7.28;;;-1.80;99.90;;;;;;8360949;28;20029;-71
2021/01/26 02:51:00;;;;;;;9.73;6.05;;;-1.80;99.90;;;;;;8361269;28;20032;-72
2021/01/26 02:55:06;;;;;;;;;;;-1.90;99.90;;;;;;8361199;28;20029;-72
2021/01/26 02:59:27;;;;;;;11.50;6.43;;;-1.90;99.90;;;;;;8362130;28;19905;-72
2021/01/26 03:03:37;;;;;;;10.85;5.65;;;-1.80;99.90;;;;;;8360030;28;20021;-72
2021/01/26 03:07:45;;;;;;;10.38;6.57;;;-1.90;99.90;;;;;;8360474;28;20029;-72
2021/01/26 03:12:00;;;;;;;9.23;5.80;;;-1.80;99.90;;;;;;8361634;28;20028;-72
2021/01/26 03:16:11;;;;;;;10.20;5.47;;;-1.90;99.90;;;;;;8361170;28;20043;-72
2021/01/26 03:20:20;;;;;;;11.90;5.75;;;-1.80;99.90;;;;;;8360259;28;20063;-72
2021/01/26 03:24:24;;;;;;;11.40;6.00;;;-2.00;99.90;;;;;;8359668;28;20403;-72
2021/01/26 03:28:27;;;;;;;10.05;5.50;;;-2.00;99.90;;;;;;8361088;28;20055;-72
2021/01/26 03:32:36;;;;;;;10.18;5.90;;;-1.90;99.90;;;;;;8359414;28;20021;-72
2021/01/26 03:36:37;;;;;;;9.60;5.38;;;-1.80;99.90;;;;;;8360631;28;20491;-72
2021/01/26 03:40:38;;;;;;;12.30;6.60;;;-1.70;99.90;;;;;;8358395;28;20400;-72
2021/01/26 03:44:38;;;;;;;5.78;3.45;;;-1.70;99.90;;;;;;8357760;28;20021;-72
2021/01/26 03:48:53;;;;;;;11.48;6.70;;;-1.50;99.90;;;;;;8359094;28;20017;-73
2021/01/26 03:53:31;;;;;;;13.07;6.30;;;-1.50;99.90;;;;;;8359639;28;20021;-72
2021/01/26 03:57:32;;;;;;;9.77;5.85;;;-1.60;99.90;;;;;;8358434;28;20491;-73
2021/01/26 04:01:42;;;;;;;9.75;5.88;;;-1.50;99.90;;;;;;8360401;28;20032;-72
2021/01/26 04:05:58;;;;;;;10.45;5.38;;;-1.30;99.90;;;;;;8371089;28;20079;-72
2021/01/26 04:10:08;;;;;;;11.55;6.32;;;-1.40;99.90;;;;;;8376000;28;20047;-72
2021/01/26 04:14:32;;;;;;;12.48;6.88;;;-1.40;99.90;;;;;;8379163;28;20020;-72
2021/01/26 04:18:42;;;;;;;10.85;6.40;;;-1.40;99.90;;;;;;8376044;28;20037;-72
2021/01/26 04:22:42;;;;;;;11.93;6.45;;;-1.30;99.90;;;;;;8374805;28;20021;-73
2021/01/26 04:26:45;;;;;;;9.13;5.30;;;-1.40;99.90;;;;;;8392717;28;20453;-72
2021/01/26 04:30:46;;;;;;;5.22;2.97;;;-1.30;99.90;;;;;;8392999;28;20020;-74
2021/01/26 04:34:46;;;;;;;8.13;4.75;;;-1.30;99.90;;;;;;8401055;28;20106;-72
2021/01/26 04:38:48;;;;;;;6.90;3.95;;;-1.30;99.90;;;;;;8419739;28;20035;-72
2021/01/26 04:42:51;;;;;;;6.80;3.95;;;-1.30;99.90;;;;;;8386155;28;20391;-72
2021/01/26 04:47:10;;;;;;;10.68;4.95;;;-1.20;99.90;;;;;;8364053;28;20055;-72
2021/01/26 04:51:34;;;;;;;9.05;4.13;;;-1.30;99.90;;;;;;8366579;28;20025;-71
2021/01/26 04:55:46;;;;;;;7.03;3.45;;;-1.30;99.90;;;;;;8397155;28;20029;-72
2021/01/26 04:59:58;;;;;;;5.65;3.67;;;-1.30;99.90;;;;;;8394654;28;20025;-72
2021/01/26 05:04:00;;;;;;;8.65;4.00;;;-1.30;99.90;;;;;;8380246;28;20050;-72
2021/01/26 05:08:08;;;;;;;7.28;4.72;;;-1.30;99.90;;;;;;8376072;28;20028;-72
2021/01/26 05:12:11;;;;;;;5.10;3.50;;;-1.20;99.90;;;;;;8378390;28;20091;-72
2021/01/26 05:16:26;;;;;;;8.60;4.95;;;-1.20;99.90;;;;;;8370229;28;20033;-72
2021/01/26 05:20:30;;;;;;;3.95;2.55;;;-1.30;99.90;;;;;;8365447;28;20044;-72
2021/01/26 05:24:48;;;;;;;10.32;4.05;;;-1.30;99.90;;;;;;8366886;28;20044;-71
2021/01/26 05:28:50;;;;;;;8.57;3.83;;;-1.30;99.90;;;;;;8363535;28;20017;-71
2021/01/26 05:32:53;;;;;;;4.38;2.88;;;-1.30;99.90;;;;;;8377846;28;20426;-71
2021/01/26 05:36:54;;;;;;;3.97;2.55;;;-1.30;99.90;;;;;;8397409;28;20051;-71
2021/01/26 05:40:57;;;;;;;8.95;3.58;;;-1.30;99.90;;;;;;8396594;28;20039;-72
2021/01/26 05:45:07;;;;;;;4.60;3.10;;;-1.30;99.90;;;;;;8397053;28;20398;-74
2021/01/26 05:49:08;;;;;;;;;;;-1.20;99.90;;;;;;8396994;28;20021;-73
2021/01/26 05:53:24;;;;;;;6.00;3.35;;;-1.10;99.90;;;;;;8366563;28;19959;-74
2021/01/26 05:57:37;;;;;;;4.53;1.48;;;-1.10;99.90;;;;;;8363438;28;20032;-74
2021/01/26 06:01:37;;;;;;;3.38;2.17;;;-1.10;99.90;;;;;;8362747;28;20119;-73
2021/01/26 06:05:40;;;;;;;5.90;3.20;;;-1.00;99.90;;;;;;8362155;28;20669;-73
2021/01/26 06:09:42;;;;;;;2.78;1.90;;;-1.00;99.90;;;;;;8364082;28;20071;-73
2021/01/26 06:13:43;;;;;;;6.35;4.20;;;-1.00;99.90;;;;;;8362386;28;20108;-73
2021/01/26 06:17:43;;;;;;;3.15;2.10;;;-1.00;99.90;;;;;;8362455;28;20036;-73
2021/01/26 06:21:50;;;;;;;5.25;1.90;;;-1.00;99.90;;;;;;8362495;28;20637;-75
2021/01/26 06:25:55;;;;;;;8.02;3.65;;;-0.90;99.90;;;;;;8362073;28;20029;-72
2021/01/26 06:30:24;;;;;;;6.43;3.15;;;-1.00;99.90;;;;;;8362382;28;20476;-73
2021/01/26 06:34:53;;;;;;;3.35;2.03;;;-1.00;99.90;;;;;;8376570;28;20440;-72
2021/01/26 06:39:26;;;;;;;3.78;1.77;;;-1.10;99.90;;;;;;8378887;28;20021;-74
2021/01/26 06:43:53;;;;;;;3.80;2.25;;;-1.10;99.90;;;;;;8378818;28;20066;-72
2021/01/26 06:48:31;;;;;;;2.97;1.88;;;-1.10;99.90;;;;;;8382557;28;20044;-72
2021/01/26 06:52:58;;;;;;;8.35;4.95;;;-1.00;99.90;;;;;;8377613;28;20537;-71
2021/01/26 06:57:20;;;;;;;6.95;3.67;;;-1.00;99.90;;;;;;8360596;28;20035;-71
2021/01/26 07:01:42;;;;;;;5.63;3.20;;;-1.00;99.90;;;;;;8382206;28;20507;-72
2021/01/26 07:06:04;;;;;;;7.95;3.42;;;-1.00;99.90;;;;;;8375807;28;20055;-72
2021/01/26 07:10:42;;;;;;;4.07;1.90;;;-1.00;99.90;;;;;;8380518;28;20016;-73
2021/01/26 07:15:09;;;;;;;4.72;1.63;;;-0.90;99.90;;;;;;8335315;28;20041;-72
2021/01/26 07:19:39;;;;;;;4.47;2.70;;;-1.00;99.90;;;;;;8362895;28;20124;-71
2021/01/26 07:23:56;;;;;;;;;;;-0.90;99.90;;;;;;8359343;28;20028;-71
2021/01/26 07:28:26;;;;;;;5.57;1.85;;;-0.90;99.90;;;;;;8359432;28;20042;-71
2021/01/26 07:32:35;;;;;;;4.70;2.88;;;-0.90;99.90;;;;;;8381854;28;20052;-71
2021/01/26 07:36:39;;;;;;;5.32;2.60;;;-0.90;99.90;;;;;;8370232;28;20043;-71
2021/01/26 07:40:50;;;;;;;5.97;2.72;;;-0.90;99.90;;;;;;8380732;28;20625;-71
2021/01/26 07:45:04;;;;;;;4.93;2.90;;;-0.80;99.90;;;;;;8371175;28;20087;-72
2021/01/26 07:49:12;;;;;;;6.05;3.72;;;-0.90;99.90;;;;;;8367786;28;20024;-72
2021/01/26 07:53:32;;;;;;;8.55;2.67;;;-0.80;99.90;;;;;;8369432;28;20025;-72
2021/01/26 07:57:54;;;;;;;3.95;2.08;;;-0.80;99.90;;;;;;8384764;28;20507;-73
2021/01/26 08:02:00;;;;;;;8.32;3.35;;;-0.70;99.90;;;;;;8375490;28;20037;-72
2021/01/26 08:06:01;;;;;;;8.45;3.05;;;-0.80;99.90;;;;;;8365447;28;20106;-71
2021/01/26 08:10:04;;;;;;;4.40;2.28;;;-0.90;99.90;;;;;;8359634;28;20041;-71
2021/01/26 08:14:08;;;;;;;3.80;2.08;;;-0.90;99.90;;;;;;8388413;28;20421;-71
2021/01/26 08:18:32;;;;;;;7.65;3.50;;;-0.80;99.90;;;;;;8370991;28;20035;-71
2021/01/26 08:22:54;;;;;;;4.53;2.00;;;-0.80;99.90;;;;;;8379866;28;20048;-72
2021/01/26 08:27:16;;;;;;;3.38;2.22;;;-0.60;99.90;;;;;;8358938;28;20037;-71
2021/01/26 08:31:38;;;;;;;4.22;2.17;;;-0.50;99.90;;;;;;8366247;28;20021;-72
2021/01/26 08:35:48;;;;;;;6.97;4.47;;;-0.40;99.90;;;;;;8375183;28;20056;-71
2021/01/26 08:39:51;;;;;;;5.75;3.40;;;-0.40;99.90;;;;;;8388754;28;20498;-71
2021/01/26 08:43:52;;;;;;;6.18;2.95;;;-0.30;99.90;;;;;;8385190;28;20407;-71
2021/01/26 08:48:06;;;;;;;8.75;3.88;;;-0.10;99.90;;;;;;8390773;28;20031;-71
2021/01/26 08:52:22;;;;;;;6.32;3.72;;;-0.10;99.90;;;;;;8381620;28;20060;-71
2021/01/26 08:56:23;;;;;;;8.75;4.90;;;0.00;99.90;;;;;;8381062;28;20032;-71
2021/01/26 09:00:28;;;;;;;8.68;4.38;;;-0.10;99.90;;;;;;8380573;28;20402;-71
2021/01/26 09:04:28;;;;;;;5.63;3.58;;;0.00;99.90;;;;;;8361619;28;20032;-71
2021/01/26 09:08:41;;;;;;;4.30;2.90;;;-0.10;99.90;;;;;;8384639;28;20063;-71
2021/01/26 09:12:44;;;;;;;8.23;3.45;;;-0.10;99.90;;;;;;8387174;28;20071;-72
2021/01/26 09:16:46;;;;;;;6.53;3.60;;;0.10;99.90;;;;;;8358680;28;20123;-72
2021/01/26 09:20:50;;;;;;;8.57;3.25;;;0.10;99.90;;;;;;8358928;28;20059;-71
2021/01/26 09:24:58;;;;;;;9.43;4.45;;;0.10;99.90;;;;;;8361568;28;20025;-71
2021/01/26 09:28:58;;;;;;;8.20;3.55;;;0.20;99.90;;;;;;8393335;28;20032;-71
2021/01/26 09:33:01;;;;;;;5.78;3.17;;;0.30;99.90;;;;;;8377673;28;20025;-71
2021/01/26 09:37:14;;;;;;;8.57;4.38;;;0.20;99.90;;;;;;8380563;28;20021;-71
2021/01/26 09:41:24;;;;;;;4.13;2.65;;;0.20;99.90;;;;;;8379570;28;20112;-71
2021/01/26 09:45:24;;;;;;;8.98;5.15;;;0.10;99.90;;;;;;8385507;28;20029;-71
2021/01/26 09:49:28;;;;;;;8.82;3.75;;;0.00;99.90;;;;;;8365538;28;20037;-70
2021/01/26 09:53:29;;;;;;;11.38;4.40;;;0.00;99.90;;;;;;8380006;28;20454;-72
2021/01/26 09:57:30;;;;;;;8.50;4.25;;;0.10;99.90;;;;;;8383440;28;20036;-71
2021/01/26 10:01:32;;;;;;;7.05;2.92;;;0.10;99.90;;;;;;8397079;28;20079;-71
2021/01/26 10:05:33;;;;;;;7.03;3.47;;;0.10;99.90;;;;;;8391010;28;20057;-71
2021/01/26 10:09:34;;;;;;;4.88;3.08;;;0.20;99.90;;;;;;8362239;28;20024;-71
2021/01/26 10:13:36;;;;;;;8.85;4.72;;;0.20;99.90;;;;;;8390515;28;20410;-71
2021/01/26 10:17:50;;;;;;;8.68;3.88;;;0.40;99.90;;;;;;8386276;28;20033;-71
2021/01/26 10:21:51;;;;;;;5.50;2.63;;;0.60;99.90;;;;;;8362531;28;20036;-71
2021/01/26 10:26:05;;;;;;;5.47;2.97;;;0.70;99.90;;;;;;8377091;28;20058;-71
2021/01/26 10:30:16;;;;;;;5.53;3.22;;;0.70;99.90;;;;;;8377605;28;20100;-71
2021/01/26 10:34:35;;;;;;;7.85;4.40;;;0.60;99.90;;;;;;8377181;28;20017;-71
2021/01/26 10:38:43;;;;;;;7.60;4.10;;;0.50;99.90;;;;;;8377328;28;20025;-71
2021/01/26 10:43:17;;;;;;;7.35;3.97;;;0.30;99.90;;;;;;8377841;28;20036;-71
2021/01/26 10:47:39;;;;;;;9.55;3.97;;;0.40;99.90;;;;;;8374613;28;20025;-72
2021/01/26 10:51:42;;;;;;;5.70;3.20;;;0.50;99.90;;;;;;8377214;28;20018;-71
2021/01/26 10:55:42;;;;;;;6.47;3.60;;;0.50;99.90;;;;;;8395123;28;20564;-72
2021/01/26 10:59:43;;;;;;;5.85;3.50;;;0.60;99.90;;;;;;8377763;28;20025;-72
2021/01/26 11:03:43;;;;;;;7.47;2.95;;;0.80;99.90;;;;;;8377162;28;20024;-72
2021/01/26 11:07:44;;;;;;;4.95;2.67;;;0.80;99.90;;;;;;8375525;28;20032;-72
2021/01/26 11:11:45;;;;;;;3.63;2.17;;;0.80;99.90;;;;;;8377534;28;20402;-72
2021/01/26 11:15:45;;;;;;;7.78;3.70;;;0.90;99.90;;;;;;8378152;28;20487;-72
2021/01/26 11:19:47;;;;;;;4.80;2.58;;;1.00;99.90;;;;;;8390285;28;20028;-72
2021/01/26 11:23:48;;;;;;;3.42;2.05;;;0.80;99.90;;;;;;8378186;28;20032;-73
2021/01/26 11:27:48;;;;;;;7.88;3.58;;;0.60;99.90;;;;;;8367872;28;20047;-72
2021/01/26 11:31:49;;;;;;;2.13;1.65;;;0.70;99.90;;;;;;8360928;28;20033;-72
2021/01/26 11:35:49;;;;;;;5.40;3.33;;;0.80;99.90;;;;;;8372835;28;20029;-71
2021/01/26 11:39:50;;;;;;;5.00;2.30;;;0.70;99.90;;;;;;8375610;28;20032;-73
2021/01/26 11:43:50;;;;;;;3.70;2.58;;;0.80;99.90;;;;;;8358129;28;20040;-72
2021/01/26 11:47:51;;;;;;;5.47;2.15;;;0.80;99.90;;;;;;8372993;28;20531;-72
2021/01/26 11:51:52;;;;;;;4.68;2.53;;;1.00;99.90;;;;;;8360199;28;20029;-72
2021/01/26 11:55:55;;;;;;;4.50;2.30;;;1.20;99.90;;;;;;8359001;28;20033;-72
2021/01/26 11:59:56;;;;;;;4.85;2.70;;;1.70;99.90;;;;;;8368471;28;20087;-72
2021/01/26 12:03:56;;;;;;;3.97;2.25;;;1.70;99.90;;;;;;8372134;28;20021;-72
2021/01/26 12:07:57;;;;;;;4.13;2.08;;;2.00;99.90;;;;;;8381567;28;20024;-73
2021/01/26 12:11:58;;;;;;;3.10;2.13;;;2.40;99.90;;;;;;8375153;28;20070;-73
2021/01/26 12:15:58;;;;;;;5.28;3.20;;;2.10;99.90;;;;;;8364722;28;20056;-72
2021/01/26 12:19:59;;;;;;;5.25;3.00;;;2.30;99.90;;;;;;8378743;28;20563;-71
2021/01/26 12:23:59;;;;;;;4.85;2.35;;;2.60;99.90;;;;;;8368696;28;20033;-72
2021/01/26 12:28:01;;;;;;;3.40;2.00;;;2.60;99.90;;;;;;8382494;28;20613;-71
2021/01/26 12:32:01;;;;;;;3.40;2.88;;;2.50;99.90;;;;;;8360151;28;20031;-72
2021/01/26 12:36:03;;;;;;;4.05;1.75;;;2.70;99.90;;;;;;8368807;28;20029;-71
2021/01/26 12:40:06;;;;;;;5.80;2.45;;;2.60;99.90;;;;;;8378189;28;20033;-73
2021/01/26 12:44:07;;;;;;;6.75;2.97;;;2.30;99.90;;;;;;8381813;28;20110;-73
2021/01/26 12:48:08;;;;;;;2.88;1.73;;;2.10;99.90;;;;;;8369875;28;20483;-71
2021/01/26 12:52:08;;;;;;;2.92;1.63;;;1.90;99.90;;;;;;8400462;28;20110;-72
2021/01/26 12:56:09;;;;;;;6.13;2.70;;;1.60;99.90;;;;;;8407894;28;20166;-72
2021/01/26 13:00:13;;;;;;;4.95;2.63;;;1.90;99.90;;;;;;8391264;28;20369;-71
2021/01/26 13:04:13;;;;;;;3.47;2.03;;;2.00;99.90;;;;;;8364911;28;20435;-73
2021/01/26 13:08:15;;;;;;;5.40;2.50;;;2.20;99.90;;;;;;8365333;28;20021;-73
2021/01/26 13:12:15;;;;;;;6.65;2.85;;;2.00;99.90;;;;;;8363897;28;20083;-74
2021/01/26 13:16:16;;;;;;;7.20;2.65;;;2.00;99.90;;;;;;8363899;28;20029;-73
2021/01/26 13:20:17;;;;;;;7.93;2.95;;;1.90;99.90;;;;;;8363013;28;20032;-73
2021/01/26 13:24:19;;;;;;;3.97;2.53;;;2.00;99.90;;;;;;8363242;28;20025;-74
2021/01/26 13:28:19;;;;;;;4.03;2.10;;;2.10;99.90;;;;;;8364831;28;20025;-73
2021/01/26 13:32:21;;;;;;;7.40;2.80;;;2.20;99.90;;;;;;8364380;28;20048;-74
2021/01/26 13:36:21;;;;;;;4.65;1.90;;;2.00;99.90;;;;;;8382797;28;20119;-74
2021/01/26 13:40:22;;;;;;;5.88;2.92;;;2.20;99.90;;;;;;8391686;28;20032;-74
2021/01/26 13:44:24;;;;;;;6.40;2.67;;;2.40;99.90;;;;;;8385581;28;20029;-74
2021/01/26 13:48:25;;;;;;;3.65;2.03;;;2.40;99.90;;;;;;8365637;28;20021;-74
2021/01/26 13:52:25;;;;;;;5.65;2.00;;;2.40;99.90;;;;;;8378875;28;20045;-75
2021/01/26 13:56:26;;;;;;;3.63;2.15;;;2.40;99.90;;;;;;8378590;28;20032;-74
2021/01/26 14:00:28;;;;;;;5.97;3.45;;;2.30;99.90;;;;;;8383445;28;20551;-74
2021/01/26 14:04:29;;;;;;;5.07;2.70;;;2.10;99.90;;;;;;8382385;28;20036;-75
2021/01/26 14:08:29;;;;;;;4.65;2.55;;;2.00;99.90;;;;;;8393501;28;20025;-75
2021/01/26 14:12:30;;;;;;;4.35;2.72;;;2.20;99.90;;;;;;8400430;28;20036;-75
2021/01/26 14:16:31;;;;;;;4.25;2.45;;;2.10;99.90;;;;;;8391387;28;20033;-73
2021/01/26 14:20:31;;;;;;;3.60;1.95;;;2.20;99.90;;;;;;8366198;28;20491;-74
2021/01/26 14:24:32;;;;;;;5.82;2.58;;;2.10;99.90;;;;;;8369369;28;20110;-75
2021/01/26 14:28:34;;;;;;;4.15;2.47;;;1.90;99.90;;;;;;8374706;28;20029;-73
2021/01/26 14:32:35;;;;;;;5.53;2.25;;;1.90;99.90;;;;;;8368810;28;20017;-72
2021/01/26 14:36:35;;;;;;;4.07;1.67;;;1.90;99.90;;;;;;8371778;28;20434;-72
2021/01/26 14:40:36;;;;;;;3.25;2.22;;;1.90;99.90;;;;;;8373788;28;20774;-74
2021/01/26 14:44:37;;;;;;;5.70;2.35;;;1.70;99.90;;;;;;8368915;28;20074;-72
2021/01/26 14:48:38;;;;;;;11.15;5.82;;;1.70;99.90;;;;;;8366047;28;20025;-72
2021/01/26 14:52:38;;;;;;;37.92;13.35;;;1.60;99.90;;;;;;8374065;28;20639;-72
2021/01/26 14:56:39;;;;;;;2.70;2.10;;;1.60;99.90;;;;;;8370687;28;20025;-74
2021/01/26 15:00:39;;;;;;;2.97;1.70;;;1.70;99.90;;;;;;8390706;28;20578;-74
2021/01/26 15:04:40;;;;;;;5.57;2.33;;;1.70;99.90;;;;;;8380135;28;20028;-73
2021/01/26 15:08:41;;;;;;;12.32;6.20;;;1.70;99.90;;;;;;8372092;28;20486;-73
2021/01/26 15:12:41;;;;;;;5.82;2.88;;;1.70;99.90;;;;;;8400862;28;20025;-72
2021/01/26 15:16:43;;;;;;;4.97;3.20;;;1.70;99.90;;;;;;8366696;28;20111;-75
2021/01/26 15:20:43;;;;;;;5.25;2.72;;;1.70;99.90;;;;;;8367135;28;20075;-75
2021/01/26 15:24:44;;;;;;;4.72;2.53;;;1.60;99.90;;;;;;8374933;28;20116;-74
2021/01/26 15:28:45;;;;;;;3.85;2.05;;;1.60;99.90;;;;;;8369921;28;20032;-74
2021/01/26 15:32:46;;;;;;;3.13;1.75;;;1.50;99.90;;;;;;8380217;28;20507;-74
2021/01/26 15:36:48;;;;;;;4.43;2.50;;;1.30;99.90;;;;;;8392280;28;20064;-74
2021/01/26 15:40:48;;;;;;;10.70;3.05;;;1.20;99.90;;;;;;8371899;28;20021;-73
2021/01/26 15:44:49;;;;;;;3.25;1.95;;;1.20;99.90;;;;;;8386589;28;20479;-72
2021/01/26 15:48:50;;;;;;;6.72;2.40;;;1.20;99.90;;;;;;8394055;28;20021;-72
2021/01/26 15:52:50;;;;;;;1.58;1.20;;;1.00;99.90;;;;;;8384300;28;20035;-72
2021/01/26 15:56:51;;;;;;;2.72;1.70;;;1.00;99.90;;;;;;8392353;28;20028;-72
2021/01/26 16:00:52;;;;;;;6.22;2.00;;;0.90;99.90;;;;;;8392590;28;20032;-72
2021/01/26 16:04:53;;;;;;;3.53;1.63;;;0.90;99.90;;;;;;8385795;28;20033;-72
2021/01/26 16:08:54;;;;;;;5.88;2.08;;;0.80;99.90;;;;;;8369739;28;20032;-72
2021/01/26 16:12:55;;;;;;;4.93;2.20;;;0.80;99.90;;;;;;8377886;28;20055;-72
2021/01/26 16:16:56;;;;;;;1.58;1.35;;;0.80;99.90;;;;;;8380487;28;20041;-72
2021/01/26 16:20:56;;;;;;;4.40;2.53;;;0.70;99.90;;;;;;8374979;28;20115;-71
2021/01/26 16:24:57;;;;;;;3.28;1.35;;;0.70;99.90;;;;;;8380107;28;20017;-73
2021/01/26 16:28:58;;;;;;;3.13;1.90;;;0.70;99.90;;;;;;8378044;28;20048;-72
2021/01/26 16:32:58;;;;;;;2.13;1.02;;;0.90;99.90;;;;;;8373985;28;20103;-75
2021/01/26 16:37:00;;;;;;;2.45;1.55;;;0.90;99.90;;;;;;8379382;28;20036;-72
2021/01/26 16:41:02;;;;;;;5.43;1.90;;;0.80;99.90;;;;;;8401320;28;20030;-74
2021/01/26 16:45:05;;;;;;;4.97;1.88;;;0.60;99.90;;;;;;8386251;28;20040;-74
2021/01/26 16:49:05;;;;;;;2.25;1.63;;;0.60;99.90;;;;;;8379612;28;20108;-73
2021/01/26 16:53:06;;;;;;;2.83;1.48;;;0.60;99.90;;;;;;8379466;28;21380;-73
2021/01/26 16:57:07;;;;;;;4.25;2.22;;;0.50;99.90;;;;;;8387643;28;20510;-74
2021/01/26 17:01:07;;;;;;;5.22;2.42;;;0.50;99.90;;;;;;8379093;28;20025;-74
2021/01/26 17:05:08;;;;;;;3.58;2.00;;;0.50;99.90;;;;;;8378744;28;20127;-75
2021/01/26 17:09:09;;;;;;;4.72;2.28;;;0.50;99.90;;;;;;8365178;28;20028;-74
2021/01/26 17:13:10;;;;;;;3.97;2.05;;;0.50;99.90;;;;;;8364940;28;20104;-74
2021/01/26 17:17:12;;;;;;;4.43;2.45;;;0.50;99.90;;;;;;8364174;28;20068;-74
2021/01/26 17:21:13;;;;;;;3.78;2.30;;;0.50;99.90;;;;;;8376611;28;20085;-72
2021/01/26 17:25:14;;;;;;;3.53;1.92;;;0.50;99.90;;;;;;8381212;28;20020;-72
2021/01/26 17:29:15;;;;;;;6.70;2.15;;;0.50;99.90;;;;;;8373969;28;20395;-73
2021/01/26 17:33:16;;;;;;;4.57;2.30;;;0.50;99.90;;;;;;8379638;28;20029;-73
2021/01/26 17:37:16;;;;;;;6.45;2.50;;;0.50;99.90;;;;;;8375904;28;20032;-72
2021/01/26 17:41:17;;;;;;;2.45;1.38;;;0.60;99.90;;;;;;8371098;28;20029;-72
2021/01/26 17:45:21;;;;;;;4.50;1.55;;;0.50;99.90;;;;;;8375803;28;20115;-73
2021/01/26 17:49:21;;;;;;;3.45;2.03;;;0.50;99.90;;;;;;8377482;28;20017;-73
2021/01/26 17:53:23;;;;;;;2.13;1.70;;;0.40;99.90;;;;;;8381488;28;20078;-73
2021/01/26 17:57:24;;;;;;;3.50;1.35;;;0.40;99.90;;;;;;8366591;28;20033;-73
2021/01/26 18:01:24;;;;;;;3.38;1.92;;;0.40;99.90;;;;;;8368356;28;20093;-71
2021/01/26 18:05:28;;;;;;;3.83;2.17;;;0.50;99.90;;;;;;8368451;28;20534;-72
2021/01/26 18:09:29;;;;;;;5.72;2.00;;;0.50;99.90;;;;;;8373494;28;20066;-73
2021/01/26 18:13:30;;;;;;;6.25;2.30;;;0.40;99.90;;;;;;8365399;28;20731;-72
2021/01/26 18:17:30;;;;;;;4.43;1.13;;;0.40;99.90;;;;;;8373612;28;20086;-71
2021/01/26 18:21:31;;;;;;;5.28;3.42;;;0.40;99.90;;;;;;8388397;28;20029;-73
2021/01/26 18:25:32;;;;;;;19.85;9.23;;;0.40;99.90;;;;;;8372434;28;20033;-74
2021/01/26 18:29:32;;;;;;;5.10;2.13;;;0.40;99.90;;;;;;8389007;28;20759;-74
2021/01/26 18:33:34;;;;;;;5.75;2.90;;;0.50;99.90;;;;;;8373493;28;20067;-72
2021/01/26 18:37:34;;;;;;;4.68;1.73;;;0.50;99.90;;;;;;8375259;28;20039;-72
2021/01/26 18:41:36;;;;;;;7.30;4.88;;;0.50;99.90;;;;;;8369758;28;20032;-69
2021/01/26 18:45:39;;;;;;;4.47;2.20;;;0.40;99.90;;;;;;8368484;28;20574;-73
2021/01/26 18:49:40;;;;;;;4.65;2.40;;;0.40;99.90;;;;;;8363858;28;20416;-72
2021/01/26 18:53:41;;;;;;;4.82;2.60;;;0.30;99.90;;;;;;8368508;28;20096;-72
2021/01/26 18:57:42;;;;;;;2.67;2.08;;;0.20;99.90;;;;;;8364594;28;20024;-73
2021/01/26 19:01:44;;;;;;;4.05;2.33;;;0.30;99.90;;;;;;8370724;28;20112;-73
2021/01/26 19:05:44;;;;;;;7.53;2.70;;;0.20;99.90;;;;;;8366449;28;20029;-73
2021/01/26 19:09:45;;;;;;;4.22;2.22;;;0.30;99.90;;;;;;8365013;28;20024;-72
2021/01/26 19:13:46;;;;;;;7.55;2.80;;;0.20;99.90;;;;;;8369241;28;21584;-73
2021/01/26 19:17:46;;;;;;;3.90;2.30;;;0.20;99.90;;;;;;8367575;28;20040;-73
2021/01/26 19:21:47;;;;;;;2.55;1.52;;;0.20;99.90;;;;;;8363714;28;20094;-74
2021/01/26 19:25:55;;;;;;;5.20;2.80;;;0.20;99.90;;;;;;8400319;27;21113;-73
2021/01/26 19:29:56;;;;;;;4.57;2.20;;;0.20;99.90;;;;;;8386360;28;20117;-72
2021/01/26 19:33:58;;;;;;;5.13;2.25;;;0.20;99.90;;;;;;8388738;28;20056;-74
2021/01/26 19:37:59;;;;;;;6.78;2.35;;;0.20;99.90;;;;;;8392314;28;20542;-74
2021/01/26 19:41:59;;;;;;;3.95;2.53;;;0.20;99.90;;;;;;8395363;28;20032;-73
2021/01/26 19:46:00;;;;;;;3.78;1.67;;;0.10;99.90;;;;;;8392891;28;20032;-71
2021/01/26 19:50:02;;;;;;;7.00;3.63;;;0.10;99.90;;;;;;8392843;28;20387;-71
2021/01/26 19:54:07;;;;;;;6.60;3.60;;;0.10;99.90;;;;;;8395446;28;20043;-72
2021/01/26 19:58:08;;;;;;;8.50;3.40;;;0.10;99.90;;;;;;8394374;28;20503;-72
2021/01/26 20:02:09;;;;;;;4.88;2.50;;;0.10;99.90;;;;;;8392362;28;20115;-72
2021/01/26 20:06:09;;;;;;;8.32;3.42;;;0.10;99.90;;;;;;8394752;28;20036;-70
2021/01/26 20:10:12;;;;;;;9.50;3.53;;;0.00;99.90;;;;;;8394767;28;20039;-70
2021/01/26 20:14:13;;;;;;;4.35;2.78;;;0.10;99.90;;;;;;8392675;28;20032;-69
2021/01/26 20:18:13;;;;;;;2.90;1.42;;;0.00;99.90;;;;;;8408858;28;20186;-69
2021/01/26 20:22:15;;;;;;;14.13;5.93;;;0.00;99.90;;;;;;8401756;28;20033;-69
2021/01/26 20:26:16;;;;;;;6.68;2.83;;;0.00;99.90;;;;;;8388699;28;20039;-69
2021/01/26 20:30:29;;;;;;;4.90;2.30;;;0.00;99.90;;;;;;8393423;28;20081;-70
2021/01/26 20:34:31;;;;;;;1.33;0.98;;;0.00;99.90;;;;;;8379214;28;20025;-71
2021/01/26 20:38:32;;;;;;;6.65;2.60;;;0.00;99.90;;;;;;8369430;28;20032;-73
2021/01/26 20:42:32;;;;;;;5.88;2.78;;;-0.10;99.90;;;;;;8368597;28;20174;-72
2021/01/26 20:46:34;;;;;;;4.93;2.60;;;-0.10;99.90;;;;;;8372179;28;20710;-72
2021/01/26 20:50:36;;;;;;;3.17;2.10;;;-0.10;99.90;;;;;;8372484;28;20047;-72
2021/01/26 20:54:37;;;;;;;4.38;2.50;;;0.00;99.90;;;;;;8369463;28;20033;-72
2021/01/26 20:58:37;;;;;;;4.00;2.10;;;0.00;99.90;;;;;;8361775;28;20025;-72
2021/01/26 21:02:38;;;;;;;7.38;2.92;;;-0.10;99.90;;;;;;8368330;28;20495;-72
2021/01/26 21:06:38;;;;;;;3.72;2.58;;;-0.10;99.90;;;;;;8384741;28;20071;-71
2021/01/26 21:10:39;;;;;;;5.28;2.20;;;0.00;99.90;;;;;;8385136;28;20082;-71
2021/01/26 21:14:40;;;;;;;4.60;2.17;;;0.00;99.90;;;;;;8366899;28;20078;-72
2021/01/26 21:18:40;;;;;;;5.28;2.63;;;-0.10;99.90;;;;;;8373095;28;20025;-71
2021/01/26 21:22:41;;;;;;;6.47;2.42;;;-0.10;99.90;;;;;;8373788;28;20028;-71
2021/01/26 21:26:42;;;;;;;3.83;2.50;;;-0.30;99.90;;;;;;8364077;28;20033;-71